sensor_id;sensor_type;location;lat;lon;timestamp;P1;durP1;ratioP1;P2;durP2;ratioP2
32198;SDS011;19221;42.656;21.156;2023-01-29T00:01:04;29.77;;;18.83;;
32198;SDS011;19221;42.656;21.156;2023-01-29T00:03:31;27.75;;;17.70;;
32198;SDS011;19221;42.656;21.156;2023-01-29T00:05:57;28.98;;;18.23;;
32198;SDS011;19221;42.656;21.156;2023-01-29T00:08:23;29.67;;;17.52;;
32198;SDS011;19221;42.656;21.156;2023-01-29T00:10:49;32.53;;;21.42;;
32198;SDS011;19221;42.656;21.156;2023-01-29T00:13:15;32.90;;;20.50;;
32198;SDS011;19221;42.656;21.156;2023-01-29T00:15:41;33.03;;;19.98;;
32198;SDS011;19221;42.656;21.156;2023-01-29T00:18:06;32.28;;;19.08;;
32198;SDS011;19221;42.656;21.156;2023-01-29T00:20:33;27.38;;;18.02;;
32198;SDS011;19221;42.656;21.156;2023-01-29T00:22:58;30.20;;;18.17;;
32198;SDS011;19221;42.656;21.156;2023-01-29T00:25:24;36.55;;;22.13;;
32198;SDS011;19221;42.656;21.156;2023-01-29T00:27:50;32.72;;;20.77;;
32198;SDS011;19221;42.656;21.156;2023-01-29T00:30:16;31.63;;;18.77;;
32198;SDS011;19221;42.656;21.156;2023-01-29T00:32:44;34.08;;;20.00;;
32198;SDS011;19221;42.656;21.156;2023-01-29T00:35:09;35.60;;;21.33;;
32198;SDS011;19221;42.656;21.156;2023-01-29T00:37:35;36.47;;;20.90;;
32198;SDS011;19221;42.656;21.156;2023-01-29T00:40:01;35.75;;;21.70;;
32198;SDS011;19221;42.656;21.156;2023-01-29T00:42:27;33.28;;;20.83;;
32198;SDS011;19221;42.656;21.156;2023-01-29T00:45:11;27.25;;;17.90;;
32198;SDS011;19221;42.656;21.156;2023-01-29T00:47:36;27.15;;;17.63;;
32198;SDS011;19221;42.656;21.156;2023-01-29T00:50:06;23.00;;;15.10;;
32198;SDS011;19221;42.656;21.156;2023-01-29T00:52:32;26.60;;;15.18;;
32198;SDS011;19221;42.656;21.156;2023-01-29T00:54:58;26.77;;;15.88;;
32198;SDS011;19221;42.656;21.156;2023-01-29T00:57:25;31.40;;;17.73;;
32198;SDS011;19221;42.656;21.156;2023-01-29T00:59:51;32.60;;;19.67;;
32198;SDS011;19221;42.656;21.156;2023-01-29T01:02:17;29.90;;;18.92;;
32198;SDS011;19221;42.656;21.156;2023-01-29T01:05:01;29.23;;;18.17;;
32198;SDS011;19221;42.656;21.156;2023-01-29T01:07:28;28.83;;;18.05;;
32198;SDS011;19221;42.656;21.156;2023-01-29T01:09:53;30.10;;;18.98;;
32198;SDS011;19221;42.656;21.156;2023-01-29T01:12:37;30.90;;;20.63;;
32198;SDS011;19221;42.656;21.156;2023-01-29T01:15:03;29.92;;;17.85;;
32198;SDS011;19221;42.656;21.156;2023-01-29T01:17:29;33.38;;;20.17;;
32198;SDS011;19221;42.656;21.156;2023-01-29T01:19:55;28.48;;;19.83;;
32198;SDS011;19221;42.656;21.156;2023-01-29T01:22:21;28.30;;;19.90;;
32198;SDS011;19221;42.656;21.156;2023-01-29T01:24:46;27.75;;;18.67;;
32198;SDS011;19221;42.656;21.156;2023-01-29T01:27:12;26.77;;;19.02;;
32198;SDS011;19221;42.656;21.156;2023-01-29T01:29:38;26.42;;;17.42;;
32198;SDS011;19221;42.656;21.156;2023-01-29T01:32:04;23.30;;;14.02;;
32198;SDS011;19221;42.656;21.156;2023-01-29T01:34:30;24.35;;;16.77;;
32198;SDS011;19221;42.656;21.156;2023-01-29T01:36:56;24.25;;;15.95;;
32198;SDS011;19221;42.656;21.156;2023-01-29T01:39:23;23.85;;;15.88;;
32198;SDS011;19221;42.656;21.156;2023-01-29T01:41:49;24.95;;;16.30;;
32198;SDS011;19221;42.656;21.156;2023-01-29T01:46:59;24.48;;;16.40;;
32198;SDS011;19221;42.656;21.156;2023-01-29T01:49:26;26.45;;;17.33;;
32198;SDS011;19221;42.656;21.156;2023-01-29T01:51:51;23.83;;;15.23;;
32198;SDS011;19221;42.656;21.156;2023-01-29T01:54:20;25.33;;;15.55;;
32198;SDS011;19221;42.656;21.156;2023-01-29T01:56:49;21.30;;;14.07;;
32198;SDS011;19221;42.656;21.156;2023-01-29T01:59:17;24.98;;;15.85;;
32198;SDS011;19221;42.656;21.156;2023-01-29T02:01:45;25.92;;;16.45;;
32198;SDS011;19221;42.656;21.156;2023-01-29T02:04:18;22.35;;;15.23;;
32198;SDS011;19221;42.656;21.156;2023-01-29T02:07:04;20.67;;;13.88;;
32198;SDS011;19221;42.656;21.156;2023-01-29T02:12:19;22.23;;;15.38;;
32198;SDS011;19221;42.656;21.156;2023-01-29T02:14:45;23.63;;;14.77;;
32198;SDS011;19221;42.656;21.156;2023-01-29T02:17:12;22.63;;;15.45;;
32198;SDS011;19221;42.656;21.156;2023-01-29T02:30:12;22.13;;;14.40;;
32198;SDS011;19221;42.656;21.156;2023-01-29T02:32:45;22.52;;;14.93;;
32198;SDS011;19221;42.656;21.156;2023-01-29T02:35:26;18.98;;;13.32;;
32198;SDS011;19221;42.656;21.156;2023-01-29T02:40:45;21.25;;;13.88;;
32198;SDS011;19221;42.656;21.156;2023-01-29T02:45:47;21.95;;;13.85;;
32198;SDS011;19221;42.656;21.156;2023-01-29T02:48:17;22.00;;;13.95;;
32198;SDS011;19221;42.656;21.156;2023-01-29T02:50:44;26.77;;;15.63;;
32198;SDS011;19221;42.656;21.156;2023-01-29T02:55:56;20.60;;;13.05;;
32198;SDS011;19221;42.656;21.156;2023-01-29T02:58:32;24.70;;;15.15;;
32198;SDS011;19221;42.656;21.156;2023-01-29T03:01:01;22.33;;;14.00;;
32198;SDS011;19221;42.656;21.156;2023-01-29T03:03:30;20.23;;;13.77;;
32198;SDS011;19221;42.656;21.156;2023-01-29T03:06:05;20.60;;;13.93;;
32198;SDS011;19221;42.656;21.156;2023-01-29T03:08:41;21.20;;;14.20;;
32198;SDS011;19221;42.656;21.156;2023-01-29T03:11:08;22.15;;;13.63;;
32198;SDS011;19221;42.656;21.156;2023-01-29T03:16:20;24.85;;;14.32;;
32198;SDS011;19221;42.656;21.156;2023-01-29T03:19:08;21.05;;;13.95;;
32198;SDS011;19221;42.656;21.156;2023-01-29T03:21:34;20.55;;;14.02;;
32198;SDS011;19221;42.656;21.156;2023-01-29T03:24:27;24.25;;;15.73;;
32198;SDS011;19221;42.656;21.156;2023-01-29T03:27:13;21.45;;;14.15;;
32198;SDS011;19221;42.656;21.156;2023-01-29T03:29:59;25.33;;;14.93;;
32198;SDS011;19221;42.656;21.156;2023-01-29T03:32:44;18.77;;;11.05;;
32198;SDS011;19221;42.656;21.156;2023-01-29T03:35:11;21.75;;;13.98;;
32198;SDS011;19221;42.656;21.156;2023-01-29T03:37:45;20.73;;;13.60;;
32198;SDS011;19221;42.656;21.156;2023-01-29T03:40:11;18.52;;;13.48;;
32198;SDS011;19221;42.656;21.156;2023-01-29T03:42:48;22.33;;;13.23;;
32198;SDS011;19221;42.656;21.156;2023-01-29T03:45:18;22.80;;;14.07;;
32198;SDS011;19221;42.656;21.156;2023-01-29T03:52:48;21.42;;;13.23;;
32198;SDS011;19221;42.656;21.156;2023-01-29T04:00:18;19.88;;;12.98;;
32198;SDS011;19221;42.656;21.156;2023-01-29T04:05:21;19.58;;;12.27;;
32198;SDS011;19221;42.656;21.156;2023-01-29T04:07:50;17.88;;;12.48;;
32198;SDS011;19221;42.656;21.156;2023-01-29T04:10:18;22.95;;;13.30;;
32198;SDS011;19221;42.656;21.156;2023-01-29T04:12:49;20.83;;;13.27;;
32198;SDS011;19221;42.656;21.156;2023-01-29T04:15:16;21.92;;;13.48;;
32198;SDS011;19221;42.656;21.156;2023-01-29T04:17:50;21.08;;;13.57;;
32198;SDS011;19221;42.656;21.156;2023-01-29T04:20:17;23.15;;;13.60;;
32198;SDS011;19221;42.656;21.156;2023-01-29T04:22:47;23.80;;;15.43;;
32198;SDS011;19221;42.656;21.156;2023-01-29T04:25:17;21.05;;;14.30;;
32198;SDS011;19221;42.656;21.156;2023-01-29T04:27:56;23.35;;;14.40;;
32198;SDS011;19221;42.656;21.156;2023-01-29T04:35:50;20.48;;;13.55;;
32198;SDS011;19221;42.656;21.156;2023-01-29T04:43:25;20.88;;;13.60;;
32198;SDS011;19221;42.656;21.156;2023-01-29T04:45:59;21.70;;;13.60;;
32198;SDS011;19221;42.656;21.156;2023-01-29T04:51:04;21.38;;;13.50;;
32198;SDS011;19221;42.656;21.156;2023-01-29T04:53:36;20.60;;;12.95;;
32198;SDS011;19221;42.656;21.156;2023-01-29T04:56:20;21.48;;;14.00;;
32198;SDS011;19221;42.656;21.156;2023-01-29T04:58:48;20.88;;;13.25;;
32198;SDS011;19221;42.656;21.156;2023-01-29T05:01:17;21.13;;;13.57;;
32198;SDS011;19221;42.656;21.156;2023-01-29T05:03:45;20.17;;;13.60;;
32198;SDS011;19221;42.656;21.156;2023-01-29T05:06:12;21.98;;;13.90;;
32198;SDS011;19221;42.656;21.156;2023-01-29T05:08:38;23.45;;;14.35;;
32198;SDS011;19221;42.656;21.156;2023-01-29T05:11:05;22.45;;;14.23;;
32198;SDS011;19221;42.656;21.156;2023-01-29T05:13:31;26.40;;;15.32;;
32198;SDS011;19221;42.656;21.156;2023-01-29T05:18:32;22.42;;;14.32;;
32198;SDS011;19221;42.656;21.156;2023-01-29T05:21:00;25.55;;;14.93;;
32198;SDS011;19221;42.656;21.156;2023-01-29T05:23:28;28.17;;;16.17;;
32198;SDS011;19221;42.656;21.156;2023-01-29T05:25:54;27.33;;;15.52;;
32198;SDS011;19221;42.656;21.156;2023-01-29T05:28:21;23.95;;;14.80;;
32198;SDS011;19221;42.656;21.156;2023-01-29T05:30:47;23.02;;;14.40;;
32198;SDS011;19221;42.656;21.156;2023-01-29T05:33:14;21.35;;;13.60;;
32198;SDS011;19221;42.656;21.156;2023-01-29T05:35:40;22.52;;;13.38;;
32198;SDS011;19221;42.656;21.156;2023-01-29T05:38:06;20.45;;;13.60;;
32198;SDS011;19221;42.656;21.156;2023-01-29T05:40:32;21.77;;;13.45;;
32198;SDS011;19221;42.656;21.156;2023-01-29T05:42:58;21.20;;;13.82;;
32198;SDS011;19221;42.656;21.156;2023-01-29T05:45:23;18.63;;;11.93;;
32198;SDS011;19221;42.656;21.156;2023-01-29T05:47:49;20.42;;;12.45;;
32198;SDS011;19221;42.656;21.156;2023-01-29T05:50:15;19.65;;;12.90;;
32198;SDS011;19221;42.656;21.156;2023-01-29T05:52:41;19.92;;;13.18;;
32198;SDS011;19221;42.656;21.156;2023-01-29T05:55:07;19.23;;;12.05;;
32198;SDS011;19221;42.656;21.156;2023-01-29T05:57:34;20.38;;;13.07;;
32198;SDS011;19221;42.656;21.156;2023-01-29T05:59:59;18.77;;;12.48;;
32198;SDS011;19221;42.656;21.156;2023-01-29T06:02:27;17.77;;;12.10;;
32198;SDS011;19221;42.656;21.156;2023-01-29T06:04:53;19.02;;;12.85;;
32198;SDS011;19221;42.656;21.156;2023-01-29T06:07:19;21.67;;;13.65;;
32198;SDS011;19221;42.656;21.156;2023-01-29T06:09:44;20.05;;;13.25;;
32198;SDS011;19221;42.656;21.156;2023-01-29T06:12:10;20.38;;;12.95;;
32198;SDS011;19221;42.656;21.156;2023-01-29T06:14:36;18.15;;;12.45;;
32198;SDS011;19221;42.656;21.156;2023-01-29T06:17:01;22.80;;;14.35;;
32198;SDS011;19221;42.656;21.156;2023-01-29T06:19:27;21.50;;;13.75;;
32198;SDS011;19221;42.656;21.156;2023-01-29T06:21:53;22.88;;;14.60;;
32198;SDS011;19221;42.656;21.156;2023-01-29T06:24:18;23.30;;;15.02;;
32198;SDS011;19221;42.656;21.156;2023-01-29T06:26:44;27.05;;;16.63;;
32198;SDS011;19221;42.656;21.156;2023-01-29T06:29:10;26.52;;;15.30;;
32198;SDS011;19221;42.656;21.156;2023-01-29T06:31:35;23.27;;;14.77;;
32198;SDS011;19221;42.656;21.156;2023-01-29T06:34:01;22.55;;;13.85;;
32198;SDS011;19221;42.656;21.156;2023-01-29T06:36:28;22.58;;;13.85;;
32198;SDS011;19221;42.656;21.156;2023-01-29T06:38:53;23.60;;;14.57;;
32198;SDS011;19221;42.656;21.156;2023-01-29T06:41:20;24.38;;;14.50;;
32198;SDS011;19221;42.656;21.156;2023-01-29T06:43:49;25.23;;;15.27;;
32198;SDS011;19221;42.656;21.156;2023-01-29T06:46:15;24.45;;;15.10;;
32198;SDS011;19221;42.656;21.156;2023-01-29T06:48:41;24.35;;;14.80;;
32198;SDS011;19221;42.656;21.156;2023-01-29T06:51:07;23.25;;;14.10;;
32198;SDS011;19221;42.656;21.156;2023-01-29T06:53:33;20.45;;;13.18;;
32198;SDS011;19221;42.656;21.156;2023-01-29T06:55:59;20.55;;;13.50;;
32198;SDS011;19221;42.656;21.156;2023-01-29T06:58:25;21.10;;;12.80;;
32198;SDS011;19221;42.656;21.156;2023-01-29T07:00:51;18.85;;;12.48;;
32198;SDS011;19221;42.656;21.156;2023-01-29T07:03:17;18.27;;;12.13;;
32198;SDS011;19221;42.656;21.156;2023-01-29T07:05:48;21.95;;;12.85;;
32198;SDS011;19221;42.656;21.156;2023-01-29T07:08:14;21.23;;;13.43;;
32198;SDS011;19221;42.656;21.156;2023-01-29T07:10:39;21.20;;;12.93;;
32198;SDS011;19221;42.656;21.156;2023-01-29T07:13:05;22.27;;;13.10;;
32198;SDS011;19221;42.656;21.156;2023-01-29T07:15:31;24.27;;;14.27;;
32198;SDS011;19221;42.656;21.156;2023-01-29T07:20:23;21.02;;;13.05;;
32198;SDS011;19221;42.656;21.156;2023-01-29T07:22:49;22.88;;;14.10;;
32198;SDS011;19221;42.656;21.156;2023-01-29T07:25:15;23.15;;;14.48;;
32198;SDS011;19221;42.656;21.156;2023-01-29T07:27:40;38.25;;;22.50;;
32198;SDS011;19221;42.656;21.156;2023-01-29T07:30:06;29.50;;;18.00;;
32198;SDS011;19221;42.656;21.156;2023-01-29T07:32:32;25.33;;;15.93;;
32198;SDS011;19221;42.656;21.156;2023-01-29T07:34:58;29.25;;;18.50;;
32198;SDS011;19221;42.656;21.156;2023-01-29T07:37:23;31.25;;;19.30;;
32198;SDS011;19221;42.656;21.156;2023-01-29T07:39:49;29.95;;;18.65;;
32198;SDS011;19221;42.656;21.156;2023-01-29T07:42:15;32.55;;;19.30;;
32198;SDS011;19221;42.656;21.156;2023-01-29T07:44:40;32.47;;;19.92;;
32198;SDS011;19221;42.656;21.156;2023-01-29T07:47:06;31.27;;;19.85;;
32198;SDS011;19221;42.656;21.156;2023-01-29T07:49:32;27.70;;;17.73;;
32198;SDS011;19221;42.656;21.156;2023-01-29T07:51:57;26.75;;;17.30;;
32198;SDS011;19221;42.656;21.156;2023-01-29T07:54:23;37.03;;;23.85;;
32198;SDS011;19221;42.656;21.156;2023-01-29T07:56:49;33.15;;;21.25;;
32198;SDS011;19221;42.656;21.156;2023-01-29T07:59:14;30.80;;;20.23;;
32198;SDS011;19221;42.656;21.156;2023-01-29T08:01:40;28.75;;;17.27;;
32198;SDS011;19221;42.656;21.156;2023-01-29T08:04:06;22.10;;;15.63;;
32198;SDS011;19221;42.656;21.156;2023-01-29T08:06:31;27.73;;;17.92;;
32198;SDS011;19221;42.656;21.156;2023-01-29T08:08:57;25.25;;;15.07;;
32198;SDS011;19221;42.656;21.156;2023-01-29T08:11:24;27.35;;;16.73;;
32198;SDS011;19221;42.656;21.156;2023-01-29T08:13:49;29.15;;;17.65;;
32198;SDS011;19221;42.656;21.156;2023-01-29T08:16:16;38.88;;;22.65;;
32198;SDS011;19221;42.656;21.156;2023-01-29T08:18:41;28.30;;;16.23;;
32198;SDS011;19221;42.656;21.156;2023-01-29T08:21:10;30.90;;;18.92;;
32198;SDS011;19221;42.656;21.156;2023-01-29T08:23:36;25.13;;;15.73;;
32198;SDS011;19221;42.656;21.156;2023-01-29T08:26:02;33.80;;;21.13;;
32198;SDS011;19221;42.656;21.156;2023-01-29T08:28:27;30.73;;;20.20;;
32198;SDS011;19221;42.656;21.156;2023-01-29T08:30:53;28.05;;;16.48;;
32198;SDS011;19221;42.656;21.156;2023-01-29T08:33:19;39.03;;;21.85;;
32198;SDS011;19221;42.656;21.156;2023-01-29T08:35:49;31.20;;;19.50;;
32198;SDS011;19221;42.656;21.156;2023-01-29T08:38:15;33.13;;;19.88;;
32198;SDS011;19221;42.656;21.156;2023-01-29T08:40:41;34.67;;;19.63;;
32198;SDS011;19221;42.656;21.156;2023-01-29T08:43:07;35.53;;;22.60;;
32198;SDS011;19221;42.656;21.156;2023-01-29T08:45:33;34.00;;;19.90;;
32198;SDS011;19221;42.656;21.156;2023-01-29T08:48:00;31.60;;;19.17;;
32198;SDS011;19221;42.656;21.156;2023-01-29T08:50:26;34.70;;;21.95;;
32198;SDS011;19221;42.656;21.156;2023-01-29T08:52:51;35.50;;;20.27;;
32198;SDS011;19221;42.656;21.156;2023-01-29T08:55:21;40.95;;;23.90;;
32198;SDS011;19221;42.656;21.156;2023-01-29T08:57:47;36.60;;;22.23;;
32198;SDS011;19221;42.656;21.156;2023-01-29T09:00:12;40.45;;;25.00;;
32198;SDS011;19221;42.656;21.156;2023-01-29T09:02:39;40.30;;;23.23;;
32198;SDS011;19221;42.656;21.156;2023-01-29T09:05:05;33.97;;;22.77;;
32198;SDS011;19221;42.656;21.156;2023-01-29T09:07:30;42.38;;;26.70;;
32198;SDS011;19221;42.656;21.156;2023-01-29T09:09:56;32.60;;;20.35;;
32198;SDS011;19221;42.656;21.156;2023-01-29T09:12:22;36.50;;;22.77;;
32198;SDS011;19221;42.656;21.156;2023-01-29T09:14:47;39.65;;;24.20;;
32198;SDS011;19221;42.656;21.156;2023-01-29T09:17:13;33.17;;;20.05;;
32198;SDS011;19221;42.656;21.156;2023-01-29T09:19:39;31.55;;;19.83;;
32198;SDS011;19221;42.656;21.156;2023-01-29T09:22:05;33.88;;;21.85;;
32198;SDS011;19221;42.656;21.156;2023-01-29T09:24:31;35.15;;;20.83;;
32198;SDS011;19221;42.656;21.156;2023-01-29T09:26:59;35.53;;;19.77;;
32198;SDS011;19221;42.656;21.156;2023-01-29T09:29:25;31.15;;;19.50;;
32198;SDS011;19221;42.656;21.156;2023-01-29T09:31:50;33.95;;;21.25;;
32198;SDS011;19221;42.656;21.156;2023-01-29T09:34:16;39.47;;;21.63;;
32198;SDS011;19221;42.656;21.156;2023-01-29T09:36:42;34.75;;;21.42;;
32198;SDS011;19221;42.656;21.156;2023-01-29T09:39:07;36.10;;;22.67;;
32198;SDS011;19221;42.656;21.156;2023-01-29T09:44:02;48.22;;;30.20;;
32198;SDS011;19221;42.656;21.156;2023-01-29T09:46:42;43.90;;;27.45;;
32198;SDS011;19221;42.656;21.156;2023-01-29T09:49:14;41.22;;;25.55;;
32198;SDS011;19221;42.656;21.156;2023-01-29T09:51:43;40.78;;;25.17;;
32198;SDS011;19221;42.656;21.156;2023-01-29T09:56:35;37.05;;;23.52;;
32198;SDS011;19221;42.656;21.156;2023-01-29T09:59:01;35.53;;;22.33;;
32198;SDS011;19221;42.656;21.156;2023-01-29T10:01:30;42.67;;;26.15;;
32198;SDS011;19221;42.656;21.156;2023-01-29T10:14:33;51.00;;;30.10;;
32198;SDS011;19221;42.656;21.156;2023-01-29T10:27:00;56.20;;;33.05;;
32198;SDS011;19221;42.656;21.156;2023-01-29T10:29:27;44.97;;;27.10;;
32198;SDS011;19221;42.656;21.156;2023-01-29T10:31:56;60.10;;;35.75;;
32198;SDS011;19221;42.656;21.156;2023-01-29T10:36:54;44.40;;;29.08;;
32198;SDS011;19221;42.656;21.156;2023-01-29T10:39:22;34.58;;;21.77;;
32198;SDS011;19221;42.656;21.156;2023-01-29T10:41:57;39.80;;;24.17;;
32198;SDS011;19221;42.656;21.156;2023-01-29T10:49:40;50.72;;;30.70;;
32198;SDS011;19221;42.656;21.156;2023-01-29T10:52:33;46.80;;;27.77;;
32198;SDS011;19221;42.656;21.156;2023-01-29T10:59:59;36.30;;;21.42;;
32198;SDS011;19221;42.656;21.156;2023-01-29T11:02:26;33.08;;;18.73;;
32198;SDS011;19221;42.656;21.156;2023-01-29T11:04:52;47.05;;;26.60;;
32198;SDS011;19221;42.656;21.156;2023-01-29T11:07:18;49.20;;;29.50;;
32198;SDS011;19221;42.656;21.156;2023-01-29T11:09:51;38.22;;;24.98;;
32198;SDS011;19221;42.656;21.156;2023-01-29T11:12:21;50.75;;;30.88;;
32198;SDS011;19221;42.656;21.156;2023-01-29T11:14:53;54.22;;;32.67;;
32198;SDS011;19221;42.656;21.156;2023-01-29T11:17:20;36.13;;;22.38;;
32198;SDS011;19221;42.656;21.156;2023-01-29T11:19:47;42.95;;;24.98;;
32198;SDS011;19221;42.656;21.156;2023-01-29T11:22:15;42.22;;;21.38;;
32198;SDS011;19221;42.656;21.156;2023-01-29T11:24:41;42.55;;;25.50;;
32198;SDS011;19221;42.656;21.156;2023-01-29T11:27:14;41.88;;;25.67;;
32198;SDS011;19221;42.656;21.156;2023-01-29T11:29:44;34.63;;;21.55;;
32198;SDS011;19221;42.656;21.156;2023-01-29T11:37:22;46.35;;;26.50;;
32198;SDS011;19221;42.656;21.156;2023-01-29T11:39:48;50.40;;;30.38;;
32198;SDS011;19221;42.656;21.156;2023-01-29T11:42:21;39.28;;;24.42;;
32198;SDS011;19221;42.656;21.156;2023-01-29T11:44:47;42.53;;;25.50;;
32198;SDS011;19221;42.656;21.156;2023-01-29T11:49:39;37.95;;;23.73;;
32198;SDS011;19221;42.656;21.156;2023-01-29T11:52:09;39.13;;;22.67;;
32198;SDS011;19221;42.656;21.156;2023-01-29T11:54:54;34.35;;;20.38;;
32198;SDS011;19221;42.656;21.156;2023-01-29T11:59:48;43.53;;;28.00;;
32198;SDS011;19221;42.656;21.156;2023-01-29T12:02:17;46.13;;;27.88;;
32198;SDS011;19221;42.656;21.156;2023-01-29T12:04:45;38.35;;;23.80;;
32198;SDS011;19221;42.656;21.156;2023-01-29T12:07:14;41.35;;;25.35;;
32198;SDS011;19221;42.656;21.156;2023-01-29T12:09:46;41.55;;;25.20;;
32198;SDS011;19221;42.656;21.156;2023-01-29T12:12:29;46.63;;;28.60;;
32198;SDS011;19221;42.656;21.156;2023-01-29T12:17:34;37.55;;;22.70;;
32198;SDS011;19221;42.656;21.156;2023-01-29T12:20:03;39.22;;;23.63;;
32198;SDS011;19221;42.656;21.156;2023-01-29T12:25:35;35.22;;;21.63;;
32198;SDS011;19221;42.656;21.156;2023-01-29T12:28:03;46.03;;;28.02;;
32198;SDS011;19221;42.656;21.156;2023-01-29T12:30:34;40.08;;;24.65;;
32198;SDS011;19221;42.656;21.156;2023-01-29T12:33:13;48.00;;;29.45;;
32198;SDS011;19221;42.656;21.156;2023-01-29T12:35:49;36.85;;;21.77;;
32198;SDS011;19221;42.656;21.156;2023-01-29T12:40:52;38.95;;;23.95;;
32198;SDS011;19221;42.656;21.156;2023-01-29T12:43:22;37.67;;;23.55;;
32198;SDS011;19221;42.656;21.156;2023-01-29T12:45:52;39.10;;;23.17;;
32198;SDS011;19221;42.656;21.156;2023-01-29T12:48:20;43.90;;;26.35;;
32198;SDS011;19221;42.656;21.156;2023-01-29T12:50:47;36.83;;;23.38;;
32198;SDS011;19221;42.656;21.156;2023-01-29T12:53:20;41.15;;;24.58;;
32198;SDS011;19221;42.656;21.156;2023-01-29T12:55:49;46.92;;;28.50;;
32198;SDS011;19221;42.656;21.156;2023-01-29T12:58:31;47.45;;;28.55;;
32198;SDS011;19221;42.656;21.156;2023-01-29T13:01:14;42.25;;;26.02;;
32198;SDS011;19221;42.656;21.156;2023-01-29T13:06:26;50.90;;;30.30;;
32198;SDS011;19221;42.656;21.156;2023-01-29T13:09:00;45.90;;;28.25;;
32198;SDS011;19221;42.656;21.156;2023-01-29T13:11:38;52.88;;;28.90;;
32198;SDS011;19221;42.656;21.156;2023-01-29T13:16:35;42.08;;;25.75;;
32198;SDS011;19221;42.656;21.156;2023-01-29T13:19:04;58.22;;;32.60;;
32198;SDS011;19221;42.656;21.156;2023-01-29T13:21:37;45.47;;;27.17;;
32198;SDS011;19221;42.656;21.156;2023-01-29T13:24:06;43.75;;;26.27;;
32198;SDS011;19221;42.656;21.156;2023-01-29T13:26:34;46.28;;;26.27;;
32198;SDS011;19221;42.656;21.156;2023-01-29T13:29:00;40.72;;;24.70;;
32198;SDS011;19221;42.656;21.156;2023-01-29T13:33:53;41.50;;;24.08;;
32198;SDS011;19221;42.656;21.156;2023-01-29T13:36:22;46.20;;;26.88;;
32198;SDS011;19221;42.656;21.156;2023-01-29T13:38:52;47.80;;;27.50;;
32198;SDS011;19221;42.656;21.156;2023-01-29T13:43:47;44.65;;;25.85;;
32198;SDS011;19221;42.656;21.156;2023-01-29T13:46:15;48.42;;;27.60;;
32198;SDS011;19221;42.656;21.156;2023-01-29T13:48:43;51.42;;;27.95;;
32198;SDS011;19221;42.656;21.156;2023-01-29T13:51:11;43.53;;;25.20;;
32198;SDS011;19221;42.656;21.156;2023-01-29T13:53:50;53.05;;;31.70;;
32198;SDS011;19221;42.656;21.156;2023-01-29T13:58:58;43.60;;;24.38;;
32198;SDS011;19221;42.656;21.156;2023-01-29T14:06:44;55.08;;;31.05;;
32198;SDS011;19221;42.656;21.156;2023-01-29T14:09:33;53.45;;;28.30;;
32198;SDS011;19221;42.656;21.156;2023-01-29T14:11:56;44.08;;;24.75;;
32198;SDS011;19221;42.656;21.156;2023-01-29T14:17:06;48.55;;;27.83;;
32198;SDS011;19221;42.656;21.156;2023-01-29T14:19:32;49.50;;;27.88;;
32198;SDS011;19221;42.656;21.156;2023-01-29T14:21:58;52.90;;;30.17;;
32198;SDS011;19221;42.656;21.156;2023-01-29T14:24:24;54.47;;;28.88;;
32198;SDS011;19221;42.656;21.156;2023-01-29T14:26:54;49.25;;;27.55;;
32198;SDS011;19221;42.656;21.156;2023-01-29T14:29:23;47.97;;;28.10;;
32198;SDS011;19221;42.656;21.156;2023-01-29T14:34:31;49.63;;;26.77;;
32198;SDS011;19221;42.656;21.156;2023-01-29T14:37:17;57.72;;;31.40;;
32198;SDS011;19221;42.656;21.156;2023-01-29T14:42:28;51.17;;;29.50;;
32198;SDS011;19221;42.656;21.156;2023-01-29T14:44:58;45.70;;;24.95;;
32198;SDS011;19221;42.656;21.156;2023-01-29T14:49:54;58.75;;;34.28;;
32198;SDS011;19221;42.656;21.156;2023-01-29T14:52:22;54.95;;;30.77;;
32198;SDS011;19221;42.656;21.156;2023-01-29T14:54:49;49.70;;;27.83;;
32198;SDS011;19221;42.656;21.156;2023-01-29T14:57:15;49.17;;;29.45;;
32198;SDS011;19221;42.656;21.156;2023-01-29T14:59:48;51.03;;;31.23;;
32198;SDS011;19221;42.656;21.156;2023-01-29T15:02:17;44.28;;;26.88;;
32198;SDS011;19221;42.656;21.156;2023-01-29T15:04:47;44.05;;;27.45;;
32198;SDS011;19221;42.656;21.156;2023-01-29T15:07:16;45.65;;;26.55;;
32198;SDS011;19221;42.656;21.156;2023-01-29T15:09:49;48.10;;;29.27;;
32198;SDS011;19221;42.656;21.156;2023-01-29T15:12:39;44.60;;;26.42;;
32198;SDS011;19221;42.656;21.156;2023-01-29T15:22:50;56.13;;;32.58;;
32198;SDS011;19221;42.656;21.156;2023-01-29T15:25:16;50.38;;;30.58;;
32198;SDS011;19221;42.656;21.156;2023-01-29T15:27:44;56.25;;;33.03;;
32198;SDS011;19221;42.656;21.156;2023-01-29T15:30:14;51.53;;;31.45;;
32198;SDS011;19221;42.656;21.156;2023-01-29T15:32:40;47.60;;;28.25;;
32198;SDS011;19221;42.656;21.156;2023-01-29T15:35:08;50.08;;;29.92;;
32198;SDS011;19221;42.656;21.156;2023-01-29T15:37:35;56.35;;;33.70;;
32198;SDS011;19221;42.656;21.156;2023-01-29T15:40:02;60.50;;;33.92;;
32198;SDS011;19221;42.656;21.156;2023-01-29T15:42:40;53.15;;;32.67;;
32198;SDS011;19221;42.656;21.156;2023-01-29T15:45:51;74.72;;;43.13;;
32198;SDS011;19221;42.656;21.156;2023-01-29T15:47:56;49.88;;;29.45;;
32198;SDS011;19221;42.656;21.156;2023-01-29T15:50:22;49.20;;;26.33;;
32198;SDS011;19221;42.656;21.156;2023-01-29T15:52:50;50.10;;;29.38;;
32198;SDS011;19221;42.656;21.156;2023-01-29T15:55:16;51.70;;;28.40;;
32198;SDS011;19221;42.656;21.156;2023-01-29T15:57:43;52.83;;;31.38;;
32198;SDS011;19221;42.656;21.156;2023-01-29T16:00:23;53.83;;;31.58;;
32198;SDS011;19221;42.656;21.156;2023-01-29T16:02:49;53.40;;;30.63;;
32198;SDS011;19221;42.656;21.156;2023-01-29T16:05:16;62.67;;;37.10;;
32198;SDS011;19221;42.656;21.156;2023-01-29T16:07:42;64.10;;;37.00;;
32198;SDS011;19221;42.656;21.156;2023-01-29T16:10:18;50.65;;;29.27;;
32198;SDS011;19221;42.656;21.156;2023-01-29T16:12:45;54.10;;;30.92;;
32198;SDS011;19221;42.656;21.156;2023-01-29T16:18:01;52.65;;;29.42;;
32198;SDS011;19221;42.656;21.156;2023-01-29T16:20:31;53.88;;;29.95;;
32198;SDS011;19221;42.656;21.156;2023-01-29T16:22:58;47.42;;;27.42;;
32198;SDS011;19221;42.656;21.156;2023-01-29T16:25:24;58.08;;;30.98;;
32198;SDS011;19221;42.656;21.156;2023-01-29T16:27:50;46.97;;;27.33;;
32198;SDS011;19221;42.656;21.156;2023-01-29T16:30:16;56.85;;;30.52;;
32198;SDS011;19221;42.656;21.156;2023-01-29T16:32:42;51.10;;;26.75;;
32198;SDS011;19221;42.656;21.156;2023-01-29T16:35:12;58.33;;;32.10;;
32198;SDS011;19221;42.656;21.156;2023-01-29T16:37:39;61.45;;;35.20;;
32198;SDS011;19221;42.656;21.156;2023-01-29T16:40:15;54.72;;;30.85;;
32198;SDS011;19221;42.656;21.156;2023-01-29T16:42:41;66.20;;;34.15;;
32198;SDS011;19221;42.656;21.156;2023-01-29T16:45:28;60.97;;;33.22;;
32198;SDS011;19221;42.656;21.156;2023-01-29T16:47:59;55.50;;;31.92;;
32198;SDS011;19221;42.656;21.156;2023-01-29T16:50:30;57.22;;;32.47;;